createdAt,value
2023-04-23T00:01:14.948Z,16.65
2023-04-23T00:03:43.002Z,15.40
2023-04-23T00:06:11.250Z,17.40
2023-04-23T00:08:41.756Z,16.17
2023-04-23T00:11:09.402Z,16.63
2023-04-23T00:13:36.484Z,16.52
2023-04-23T00:16:03.555Z,17.05
2023-04-23T00:18:30.415Z,17.85
2023-04-23T00:20:57.631Z,17.17
2023-04-23T00:23:24.358Z,17.33
2023-04-23T00:25:51.127Z,17.73
2023-04-23T00:28:19.167Z,20.27
2023-04-23T00:30:47.038Z,18.63
2023-04-23T00:33:13.718Z,18.40
2023-04-23T00:35:40.762Z,19.30
2023-04-23T00:38:07.702Z,19.63
2023-04-23T00:40:34.375Z,20.10
2023-04-23T00:43:01.289Z,20.98
2023-04-23T00:45:28.178Z,19.15
2023-04-23T00:47:56.464Z,20.45
2023-04-23T00:50:23.430Z,19.48
2023-04-23T00:52:50.384Z,19.60
2023-04-23T00:55:17.374Z,20.45
2023-04-23T00:57:44.184Z,20.50
2023-04-23T01:00:14.094Z,19.67
2023-04-23T01:02:42.710Z,18.63
2023-04-23T01:05:11.505Z,19.98
2023-04-23T01:07:38.623Z,18.48
2023-04-23T01:10:06.089Z,19.33
2023-04-23T01:12:33.745Z,17.90
2023-04-23T01:15:00.800Z,18.55
2023-04-23T01:17:27.741Z,18.25
2023-04-23T01:19:54.657Z,16.95
2023-04-23T01:22:21.831Z,17.95
2023-04-23T01:24:49.148Z,17.98
2023-04-23T01:27:18.627Z,17.10
2023-04-23T01:29:45.589Z,17.83
2023-04-23T01:32:12.505Z,16.85
2023-04-23T01:34:40.277Z,18.48
2023-04-23T01:37:07.686Z,18.27
2023-04-23T01:39:34.542Z,17.67
2023-04-23T01:42:01.539Z,17.17
2023-04-23T01:44:28.689Z,16.30
2023-04-23T01:46:58.706Z,16.38
2023-04-23T01:49:25.650Z,15.57
2023-04-23T01:51:52.441Z,15.13
2023-04-23T01:54:19.694Z,15.38
2023-04-23T01:56:46.722Z,15.43
2023-04-23T01:59:13.694Z,13.02
2023-04-23T02:01:45.692Z,15.05
2023-04-23T02:04:14.063Z,14.80
2023-04-23T02:06:42.732Z,14.32
2023-04-23T02:09:09.931Z,14.13
2023-04-23T02:11:36.641Z,13.45
2023-04-23T02:14:03.900Z,13.63
2023-04-23T02:16:31.343Z,13.25
2023-04-23T02:18:58.374Z,13.00
2023-04-23T02:21:26.381Z,12.60
2023-04-23T02:23:53.481Z,12.77
2023-04-23T02:26:20.490Z,14.35
2023-04-23T02:28:50.288Z,14.73
2023-04-23T02:31:18.075Z,13.45
2023-04-23T02:33:47.266Z,12.80
2023-04-23T02:36:14.175Z,13.52
2023-04-23T02:38:42.661Z,12.88
2023-04-23T02:41:09.521Z,12.07
2023-04-23T02:43:36.644Z,12.52
2023-04-23T02:46:08.513Z,11.50
2023-04-23T02:48:41.018Z,11.90
2023-04-23T02:51:10.858Z,11.23
2023-04-23T02:53:37.763Z,11.77
2023-04-23T02:56:04.927Z,11.75
2023-04-23T02:58:34.977Z,11.35
2023-04-23T03:01:02.271Z,11.50
2023-04-23T03:03:32.495Z,11.23
2023-04-23T03:06:00.994Z,10.02
2023-04-23T03:08:28.580Z,9.80
2023-04-23T03:10:57.695Z,10.48
2023-04-23T03:13:25.312Z,9.73
2023-04-23T03:15:53.362Z,9.85
2023-04-23T03:18:20.835Z,9.93
2023-04-23T03:20:49.413Z,9.30
2023-04-23T03:23:16.914Z,10.65
2023-04-23T03:25:43.925Z,9.85
2023-04-23T03:28:10.848Z,9.30
2023-04-23T03:30:38.242Z,9.38
2023-04-23T03:33:05.260Z,9.07
2023-04-23T03:35:32.320Z,9.65
2023-04-23T03:37:59.339Z,9.65
2023-04-23T03:40:26.352Z,10.27
2023-04-23T03:42:53.361Z,10.95
2023-04-23T03:45:23.416Z,9.75
2023-04-23T03:47:50.275Z,10.20
2023-04-23T03:50:19.609Z,10.60
2023-04-23T03:52:46.530Z,11.10
2023-04-23T03:55:13.387Z,9.65
2023-04-23T03:57:40.204Z,10.02
2023-04-23T04:00:12.018Z,10.70
2023-04-23T04:02:39.809Z,11.35
2023-04-23T04:05:07.843Z,10.30
2023-04-23T04:07:35.834Z,10.38
2023-04-23T04:10:03.437Z,11.25
2023-04-23T04:12:30.497Z,12.35
2023-04-23T04:15:00.158Z,12.20
2023-04-23T04:17:27.363Z,13.15
2023-04-23T04:19:54.477Z,14.65
2023-04-23T04:22:21.409Z,12.73
2023-04-23T04:24:52.311Z,13.45
2023-04-23T04:27:22.416Z,12.48
2023-04-23T04:29:52.182Z,11.88
2023-04-23T04:32:22.563Z,11.93
2023-04-23T04:34:50.307Z,12.63
2023-04-23T04:37:22.614Z,11.82
2023-04-23T04:39:49.716Z,11.10
2023-04-23T04:42:16.885Z,12.27
2023-04-23T04:44:44.070Z,11.82
2023-04-23T04:47:11.470Z,11.52
2023-04-23T04:49:38.580Z,10.70
2023-04-23T04:52:05.880Z,9.02
2023-04-23T04:54:33.028Z,9.00
2023-04-23T04:57:00.119Z,8.23
2023-04-23T04:59:27.240Z,10.15
2023-04-23T05:01:54.530Z,9.38
2023-04-23T05:04:21.716Z,9.05
2023-04-23T05:06:48.760Z,9.65
2023-04-23T05:09:15.756Z,9.43
2023-04-23T05:11:43.294Z,10.70
2023-04-23T05:14:10.533Z,11.00
2023-04-23T05:16:38.313Z,11.05
2023-04-23T05:19:05.313Z,10.30
2023-04-23T05:21:32.255Z,11.60
2023-04-23T05:24:03.531Z,10.15
2023-04-23T05:28:59.968Z,9.38
2023-04-23T05:31:28.829Z,8.13
2023-04-23T05:33:56.754Z,10.00
2023-04-23T05:36:24.266Z,10.05
2023-04-23T05:38:51.298Z,10.68
2023-04-23T05:41:21.258Z,10.45
2023-04-23T05:43:48.412Z,10.10
2023-04-23T05:46:15.487Z,8.88
2023-04-23T05:48:42.614Z,10.10
2023-04-23T05:51:10.739Z,9.00
2023-04-23T05:53:38.115Z,8.48
2023-04-23T05:56:06.898Z,8.13
2023-04-23T05:58:35.492Z,10.20
2023-04-23T06:01:05.275Z,9.85
2023-04-23T06:03:32.866Z,8.23
2023-04-23T06:06:00.265Z,8.45
2023-04-23T06:08:27.491Z,9.05
2023-04-23T06:10:56.689Z,8.70
2023-04-23T06:13:28.405Z,8.27
2023-04-23T06:15:55.523Z,9.23
2023-04-23T06:18:22.723Z,9.38
2023-04-23T06:20:52.845Z,9.52
2023-04-23T06:23:22.684Z,9.93
2023-04-23T06:25:49.901Z,10.13
2023-04-23T06:28:17.648Z,9.57
2023-04-23T06:30:44.747Z,9.05
2023-04-23T06:33:23.092Z,8.85
2023-04-23T06:35:53.042Z,9.15
2023-04-23T06:38:23.360Z,9.07
2023-04-23T06:40:50.632Z,9.30
2023-04-23T06:43:19.422Z,9.60
2023-04-23T06:45:49.447Z,9.50
2023-04-23T06:48:22.859Z,9.27
2023-04-23T06:50:50.287Z,9.07
2023-04-23T06:53:20.524Z,9.15
2023-04-23T06:55:50.498Z,8.88
2023-04-23T06:58:24.258Z,9.38
2023-04-23T07:00:51.710Z,8.77
2023-04-23T07:03:22.006Z,8.70
2023-04-23T07:05:49.512Z,9.13
2023-04-23T07:08:20.448Z,9.00
2023-04-23T07:10:47.700Z,8.20
2023-04-23T07:13:15.432Z,8.02
2023-04-23T07:15:43.091Z,7.78
2023-04-23T07:18:10.351Z,7.40
2023-04-23T07:20:45.445Z,8.02
2023-04-23T07:23:13.423Z,6.80
2023-04-23T07:25:40.679Z,6.78
2023-04-23T07:28:12.282Z,6.00
2023-04-23T07:30:40.262Z,6.20
2023-04-23T07:33:08.997Z,6.28
2023-04-23T07:35:36.185Z,5.90
2023-04-23T07:38:10.311Z,5.55
2023-04-23T07:40:43.687Z,5.65
2023-04-23T07:43:18.467Z,6.20
2023-04-23T07:45:46.687Z,5.40
2023-04-23T07:48:19.730Z,4.68
2023-04-23T07:50:50.138Z,5.28
2023-04-23T07:53:24.735Z,5.33
2023-04-23T07:55:55.277Z,5.05
2023-04-23T07:58:30.323Z,5.10
2023-04-23T08:03:52.440Z,4.35
2023-04-23T08:09:09.009Z,3.35
2023-04-23T08:11:43.533Z,4.00
2023-04-23T08:14:12.654Z,3.80
2023-04-23T08:16:49.357Z,4.03
2023-04-23T08:19:20.944Z,3.50
2023-04-23T08:24:37.781Z,3.45
2023-04-23T08:32:41.663Z,2.95
2023-04-23T08:35:16.487Z,2.88
2023-04-23T08:37:51.418Z,3.10
2023-04-23T08:40:26.500Z,2.60
2023-04-23T08:43:15.231Z,3.42
2023-04-23T08:51:41.581Z,2.67
2023-04-23T09:19:27.852Z,2.00
2023-04-23T09:21:54.689Z,2.78
2023-04-23T09:24:25.131Z,2.33
2023-04-23T09:26:52.921Z,2.85
2023-04-23T09:29:23.299Z,2.75
2023-04-23T09:31:53.201Z,2.50
2023-04-23T09:34:23.385Z,3.00
2023-04-23T09:36:51.789Z,3.10
2023-04-23T09:39:22.170Z,2.70
2023-04-23T09:41:48.886Z,2.43
2023-04-23T09:44:22.469Z,2.30
2023-04-23T09:46:50.806Z,2.83
2023-04-23T09:49:30.974Z,1.83
2023-04-23T09:52:10.637Z,2.10
2023-04-23T09:54:38.808Z,2.45
2023-04-23T09:59:57.447Z,2.17
2023-04-23T10:02:51.008Z,2.13
2023-04-23T10:05:27.606Z,2.00
2023-04-23T10:08:09.607Z,1.50
2023-04-23T10:11:05.966Z,2.05
2023-04-23T10:13:41.908Z,2.08
2023-04-23T10:16:42.021Z,2.60
2023-04-23T10:25:32.714Z,1.88
2023-04-23T10:36:09.863Z,1.45
2023-04-23T10:38:42.934Z,1.35
2023-04-23T10:41:22.425Z,1.33
2023-04-23T10:46:49.536Z,1.10
2023-04-23T10:52:20.819Z,1.08
2023-04-23T10:57:37.136Z,0.88
2023-04-23T11:00:06.688Z,0.80
2023-04-23T11:02:45.186Z,0.73
2023-04-23T11:39:36.273Z,1.00
2023-04-23T11:42:05.048Z,0.90
2023-04-23T11:53:00.382Z,0.50
2023-04-23T11:55:38.024Z,0.52
2023-04-23T11:58:08.742Z,0.57
2023-04-23T12:03:22.975Z,0.50
2023-04-23T12:05:51.250Z,0.70
2023-04-23T12:16:56.354Z,0.50
2023-04-23T12:19:35.306Z,0.40
2023-04-23T12:27:36.149Z,0.45
2023-04-23T17:04:27.099Z,0.77
2023-04-23T17:06:56.890Z,0.47
2023-04-23T17:09:26.984Z,0.80
2023-04-23T17:11:53.956Z,0.70
2023-04-23T17:14:20.916Z,0.88
2023-04-23T17:16:47.685Z,0.77
2023-04-23T17:19:14.277Z,1.15
2023-04-23T17:21:41.038Z,1.50
2023-04-23T17:24:07.659Z,1.23
2023-04-23T17:26:34.278Z,1.40
2023-04-23T17:29:00.851Z,1.20
2023-04-23T17:31:27.540Z,1.00
2023-04-23T17:33:55.500Z,1.10
2023-04-23T17:36:22.195Z,0.73
2023-04-23T17:38:48.795Z,1.00
2023-04-23T17:41:16.967Z,1.02
2023-04-23T17:43:43.625Z,0.88
2023-04-23T17:46:10.277Z,0.65
2023-04-23T17:48:36.910Z,0.85
2023-04-23T17:51:03.636Z,0.90
2023-04-23T17:53:30.890Z,0.63
2023-04-23T17:56:02.598Z,0.80
2023-04-23T17:58:30.693Z,0.60
2023-04-23T18:00:57.562Z,0.90
2023-04-23T18:03:24.670Z,1.05
2023-04-23T18:05:51.515Z,1.10
2023-04-23T18:08:19.571Z,1.02
2023-04-23T18:10:46.288Z,1.02
2023-04-23T18:13:13.845Z,1.00
2023-04-23T18:15:42.106Z,0.70
2023-04-23T18:18:09.266Z,0.95
2023-04-23T18:20:38.617Z,0.80
2023-04-23T18:23:06.791Z,1.13
2023-04-23T18:25:33.777Z,1.02
2023-04-23T18:28:00.444Z,1.10
2023-04-23T18:30:27.056Z,1.10
2023-04-23T18:33:24.580Z,1.33
2023-04-23T18:35:55.500Z,1.15
2023-04-23T18:38:25.553Z,1.38
2023-04-23T18:40:52.230Z,1.15
2023-04-23T18:43:18.905Z,1.30
2023-04-23T18:45:45.497Z,1.15
2023-04-23T18:48:34.112Z,1.30
2023-04-23T18:51:05.889Z,1.17
2023-04-23T18:53:32.802Z,1.10
2023-04-23T18:55:59.446Z,1.13
2023-04-23T18:58:26.120Z,1.15
2023-04-23T19:00:52.685Z,0.82
2023-04-23T19:03:26.873Z,1.15
2023-04-23T19:05:54.043Z,1.08
2023-04-23T19:08:21.342Z,0.93
2023-04-23T19:10:48.040Z,0.93
2023-04-23T19:13:14.708Z,0.60
2023-04-23T19:15:41.545Z,0.80
2023-04-23T19:18:08.386Z,1.20
2023-04-23T19:20:35.069Z,0.47
2023-04-23T19:23:03.901Z,0.70
2023-04-23T19:25:30.793Z,1.10
2023-04-23T19:27:57.503Z,0.85
2023-04-23T19:30:24.153Z,0.82
2023-04-23T19:32:50.893Z,0.60
2023-04-23T19:35:17.815Z,1.17
2023-04-23T19:37:44.563Z,1.35
2023-04-23T19:40:12.049Z,0.82
2023-04-23T19:42:39.338Z,0.60
2023-04-23T19:45:06.397Z,0.63
2023-04-23T19:47:34.965Z,0.80
2023-04-23T19:50:01.718Z,0.60
2023-04-23T19:52:29.131Z,0.70
2023-04-23T19:54:55.941Z,0.65
2023-04-23T19:57:22.847Z,0.60
2023-04-23T19:59:50.238Z,0.80
2023-04-23T20:02:17.239Z,0.50
2023-04-23T20:04:44.178Z,0.77
2023-04-23T20:07:11.186Z,0.82
2023-04-23T20:09:37.878Z,0.63
2023-04-23T20:12:05.114Z,0.65
2023-04-23T20:14:32.020Z,0.73
2023-04-23T20:16:58.969Z,0.70
2023-04-23T20:19:26.306Z,0.73
2023-04-23T20:21:53.307Z,0.80
2023-04-23T20:24:22.858Z,0.77
2023-04-23T20:26:49.659Z,1.00
2023-04-23T20:29:16.396Z,0.70
2023-04-23T20:31:43.401Z,0.75
2023-04-23T20:34:11.163Z,0.80
2023-04-23T20:36:38.977Z,0.77
2023-04-23T20:39:05.789Z,0.70
2023-04-23T20:41:36.624Z,0.60
2023-04-23T20:44:05.323Z,0.70
2023-04-23T20:46:32.847Z,0.70
2023-04-23T20:49:03.978Z,0.77
2023-04-23T20:51:34.732Z,0.55
2023-04-23T20:54:02.166Z,0.80
2023-04-23T20:56:29.495Z,0.80
2023-04-23T20:58:57.809Z,0.93
2023-04-23T21:01:25.407Z,0.52
2023-04-23T21:03:53.990Z,0.80
2023-04-23T21:06:21.707Z,0.70
2023-04-23T21:08:48.486Z,0.80
2023-04-23T21:11:18.295Z,0.55
2023-04-23T21:13:46.157Z,0.50
2023-04-23T21:16:13.334Z,0.60
2023-04-23T21:18:41.650Z,0.70
2023-04-23T21:21:08.513Z,0.82
2023-04-23T21:23:35.828Z,0.60
2023-04-23T21:26:03.392Z,0.60
2023-04-23T21:28:33.827Z,0.40
2023-04-23T21:31:11.558Z,0.50
2023-04-23T21:33:40.831Z,0.60
2023-04-23T21:36:08.069Z,0.40
2023-04-23T21:38:35.144Z,0.50
2023-04-23T21:41:03.254Z,0.30
2023-04-23T21:43:35.685Z,0.30
2023-04-23T21:46:02.666Z,0.40
2023-04-23T21:48:32.280Z,0.40
2023-04-23T21:50:59.376Z,0.40
2023-04-23T21:53:28.594Z,0.30
2023-04-23T21:55:57.758Z,0.50
2023-04-23T21:58:25.053Z,0.30
2023-04-23T22:00:55.719Z,0.30
2023-04-23T22:03:31.335Z,0.20
2023-04-23T22:06:08.792Z,0.40
2023-04-23T22:08:43.757Z,0.30
2023-04-23T22:11:17.391Z,0.30
2023-04-23T22:13:51.197Z,0.35
2023-04-23T22:16:28.262Z,0.50
2023-04-23T22:18:57.137Z,0.30
2023-04-23T22:21:24.367Z,0.22
2023-04-23T22:23:51.935Z,0.20
2023-04-23T22:26:21.740Z,0.30
2023-04-23T22:28:52.190Z,0.30
2023-04-23T22:31:24.470Z,0.20
2023-04-23T22:33:57.092Z,0.20
2023-04-23T22:36:31.719Z,0.20
2023-04-23T22:39:10.021Z,0.20
2023-04-23T22:41:46.165Z,0.38
2023-04-23T22:44:19.203Z,0.20
2023-04-23T22:46:46.561Z,0.30
2023-04-23T22:49:17.117Z,0.47
2023-04-23T22:51:55.407Z,0.30
2023-04-23T22:54:23.059Z,0.20
2023-04-23T22:59:38.941Z,0.20
2023-04-23T23:02:10.812Z,0.20
2023-04-23T23:04:45.400Z,0.30
2023-04-23T23:07:19.477Z,0.28
2023-04-23T23:09:47.474Z,0.17
2023-04-23T23:14:59.712Z,0.28
2023-04-23T23:20:52.147Z,0.20
2023-04-23T23:34:40.194Z,0.20
2023-04-23T23:45:54.774Z,0.20
2023-04-23T23:51:10.886Z,0.25
